createdAt,value
2022-08-30T00:00:00.981Z,7.40
2022-08-30T00:01:00.891Z,7.30
2022-08-30T00:02:00.882Z,6.50
2022-08-30T00:03:01.018Z,7.20
2022-08-30T00:04:00.903Z,7.10
2022-08-30T00:05:00.819Z,7.10
2022-08-30T00:06:00.822Z,6.50
2022-08-30T00:07:00.794Z,6.80
2022-08-30T00:08:01.862Z,6.80
2022-08-30T00:09:00.770Z,6.80
2022-08-30T00:10:00.858Z,7.40
2022-08-30T00:11:00.752Z,7.10
2022-08-30T00:12:00.753Z,6.90
2022-08-30T00:13:00.763Z,7.20
2022-08-30T00:14:00.703Z,6.70
2022-08-30T00:15:01.703Z,6.80
2022-08-30T00:16:00.797Z,6.80
2022-08-30T00:17:00.694Z,7.00
2022-08-30T00:18:00.743Z,7.10
2022-08-30T00:19:00.642Z,6.70
2022-08-30T00:20:00.628Z,6.80
2022-08-30T00:21:00.607Z,6.50
2022-08-30T00:22:00.587Z,7.00
2022-08-30T00:23:00.636Z,7.30
2022-08-30T00:24:00.566Z,7.00
2022-08-30T00:25:00.546Z,6.90
2022-08-30T00:26:00.544Z,7.70
2022-08-30T00:27:00.555Z,7.20
2022-08-30T00:28:00.522Z,8.10
2022-08-30T00:29:00.507Z,7.30
2022-08-30T00:30:00.477Z,6.80
2022-08-30T00:31:00.511Z,7.40
2022-08-30T00:32:00.458Z,6.90
2022-08-30T00:33:00.446Z,7.00
2022-08-30T00:34:00.435Z,7.40
2022-08-30T00:35:00.519Z,7.90
2022-08-30T00:36:00.390Z,7.70
2022-08-30T00:37:00.398Z,7.30
2022-08-30T00:38:00.370Z,7.90
2022-08-30T00:39:00.470Z,7.50
2022-08-30T00:40:00.480Z,6.80
2022-08-30T00:41:00.337Z,7.10
2022-08-30T00:42:00.320Z,6.80
2022-08-30T00:43:05.597Z,7.40
2022-08-30T00:44:01.319Z,7.90
2022-08-30T00:45:00.383Z,7.80
2022-08-30T00:46:00.365Z,7.60
2022-08-30T00:47:00.263Z,8.40
2022-08-30T00:48:00.281Z,7.60
2022-08-30T00:49:00.350Z,7.50
2022-08-30T00:50:00.224Z,7.50
2022-08-30T00:51:00.211Z,8.30
2022-08-30T00:52:00.228Z,8.10
2022-08-30T00:54:10.423Z,7.70
2022-08-30T00:55:10.412Z,8.50
2022-08-30T00:56:10.493Z,8.50
2022-08-30T00:57:10.404Z,8.70
2022-08-30T00:58:10.392Z,8.70
2022-08-30T00:59:10.385Z,8.80
2022-08-30T01:00:10.344Z,7.90
2022-08-30T01:01:10.435Z,9.00
2022-08-30T01:02:10.371Z,8.80
2022-08-30T01:03:10.304Z,8.90
2022-08-30T01:04:11.413Z,8.40
2022-08-30T01:05:10.284Z,9.30
2022-08-30T01:06:11.273Z,9.00
2022-08-30T01:07:10.366Z,8.50
2022-08-30T01:08:10.255Z,8.60
2022-08-30T01:09:10.217Z,7.80
2022-08-30T01:10:10.215Z,8.50
2022-08-30T01:11:10.231Z,9.00
2022-08-30T01:12:10.167Z,8.50
2022-08-30T01:13:10.166Z,7.30
2022-08-30T01:14:10.163Z,8.80
2022-08-30T01:15:11.280Z,8.10
2022-08-30T01:16:11.177Z,9.00
2022-08-30T01:17:10.239Z,8.30
2022-08-30T01:18:10.131Z,8.90
2022-08-30T01:19:10.143Z,8.70
2022-08-30T01:20:10.167Z,8.50
2022-08-30T01:21:33.118Z,8.60
2022-08-30T01:22:10.079Z,9.40
2022-08-30T01:23:10.060Z,8.30
2022-08-30T01:24:10.044Z,9.00
2022-08-30T01:25:10.039Z,8.70
2022-08-30T01:26:09.999Z,9.10
2022-08-30T01:27:10.001Z,9.20
2022-08-30T01:28:10.098Z,8.90
2022-08-30T01:29:09.996Z,9.20
2022-08-30T01:30:10.047Z,9.90
2022-08-30T01:31:10.038Z,10.00
2022-08-30T01:32:09.949Z,9.10
2022-08-30T01:33:09.986Z,9.10
2022-08-30T01:34:09.929Z,8.60
2022-08-30T01:35:09.923Z,9.50
2022-08-30T01:36:09.891Z,10.10
2022-08-30T01:37:09.880Z,9.90
2022-08-30T01:38:09.878Z,9.90
2022-08-30T01:39:09.841Z,9.70
2022-08-30T01:40:09.899Z,9.70
2022-08-30T01:41:09.833Z,10.10
2022-08-30T01:42:09.813Z,8.60
2022-08-30T01:43:09.881Z,8.50
2022-08-30T01:44:09.835Z,9.40
2022-08-30T01:45:09.833Z,9.80
2022-08-30T01:46:09.871Z,9.50
2022-08-30T01:47:09.811Z,9.60
2022-08-30T01:48:09.833Z,8.80
2022-08-30T01:49:09.724Z,9.20
2022-08-30T01:50:10.806Z,9.60
2022-08-30T01:51:09.693Z,9.20
2022-08-30T01:52:09.744Z,9.70
2022-08-30T01:53:13.129Z,9.30
2022-08-30T01:54:09.774Z,9.30
2022-08-30T01:55:09.704Z,8.50
2022-08-30T01:56:09.635Z,8.90
2022-08-30T01:57:09.680Z,9.00
2022-08-30T01:58:09.685Z,9.60
2022-08-30T01:59:09.693Z,8.10
2022-08-30T02:00:09.645Z,9.10
2022-08-30T02:01:09.599Z,9.50
2022-08-30T02:02:09.606Z,9.20
2022-08-30T02:03:09.616Z,8.70
2022-08-30T02:04:09.627Z,8.90
2022-08-30T02:05:09.527Z,8.90
2022-08-30T02:06:09.519Z,8.70
2022-08-30T02:07:09.495Z,8.40
2022-08-30T02:08:09.546Z,8.40
2022-08-30T02:09:09.546Z,8.80
2022-08-30T02:10:09.506Z,8.70
2022-08-30T02:11:09.469Z,9.20
2022-08-30T02:12:09.475Z,9.30
2022-08-30T02:13:09.522Z,9.80
2022-08-30T02:14:09.498Z,8.20
2022-08-30T02:15:09.438Z,8.80
2022-08-30T02:16:09.401Z,9.00
2022-08-30T02:17:09.380Z,8.20
2022-08-30T02:18:09.409Z,8.40
2022-08-30T02:19:09.419Z,9.30
2022-08-30T02:20:09.357Z,8.30
2022-08-30T02:21:09.371Z,8.90
2022-08-30T02:22:09.325Z,8.60
2022-08-30T02:23:09.348Z,9.30
2022-08-30T02:24:09.301Z,8.30
2022-08-30T02:25:16.448Z,8.80
2022-08-30T02:26:10.270Z,9.30
2022-08-30T02:27:09.251Z,9.00
2022-08-30T02:28:09.283Z,9.20
2022-08-30T02:29:09.282Z,8.80
2022-08-30T02:30:30.351Z,8.40
2022-08-30T02:31:09.264Z,9.10
2022-08-30T02:32:09.937Z,9.40
2022-08-30T02:33:09.278Z,9.30
2022-08-30T02:34:09.226Z,9.20
2022-08-30T02:35:09.240Z,9.60
2022-08-30T02:36:09.195Z,9.70
2022-08-30T02:37:09.137Z,10.10
2022-08-30T02:38:09.143Z,9.40
2022-08-30T02:39:09.143Z,8.10
2022-08-30T02:40:09.256Z,9.00
2022-08-30T02:41:10.125Z,8.40
2022-08-30T02:42:09.085Z,9.30
2022-08-30T02:43:09.127Z,9.30
2022-08-30T02:44:09.103Z,8.70
2022-08-30T02:45:09.105Z,8.50
2022-08-30T02:46:09.138Z,8.80
2022-08-30T02:47:10.034Z,8.70
2022-08-30T02:48:08.996Z,9.30
2022-08-30T02:49:30.394Z,8.10
2022-08-30T02:50:09.962Z,9.00
2022-08-30T02:51:09.362Z,8.40
2022-08-30T02:52:09.053Z,8.70
2022-08-30T02:53:08.966Z,9.20
2022-08-30T02:54:08.913Z,9.00
2022-08-30T02:55:08.956Z,8.90
2022-08-30T02:56:08.995Z,8.40
2022-08-30T02:57:20.058Z,8.50
2022-08-30T02:58:09.867Z,9.10
2022-08-30T02:59:08.874Z,9.00
2022-08-30T03:00:08.834Z,8.70
2022-08-30T03:01:08.896Z,8.90
2022-08-30T03:02:08.914Z,9.40
2022-08-30T03:03:08.862Z,8.80
2022-08-30T03:04:08.827Z,9.10
2022-08-30T03:05:08.817Z,9.10
2022-08-30T03:06:08.868Z,8.20
2022-08-30T03:07:08.769Z,9.20
2022-08-30T03:08:08.747Z,9.00
2022-08-30T03:09:08.749Z,8.80
2022-08-30T03:10:08.767Z,8.60
2022-08-30T03:11:08.796Z,8.90
2022-08-30T03:12:08.778Z,9.30
2022-08-30T03:13:08.766Z,8.80
2022-08-30T03:14:08.670Z,8.40
2022-08-30T03:15:08.719Z,9.20
2022-08-30T03:16:10.692Z,9.40
2022-08-30T03:17:15.599Z,9.40
2022-08-30T03:18:09.664Z,9.30
2022-08-30T03:19:08.607Z,8.30
2022-08-30T03:20:08.669Z,9.30
2022-08-30T03:21:08.569Z,8.50
2022-08-30T03:22:08.563Z,9.30
2022-08-30T03:23:08.563Z,9.30
2022-08-30T03:24:08.530Z,10.10
2022-08-30T03:25:08.539Z,8.50
2022-08-30T03:42:26.614Z,8.30
2022-08-30T03:43:24.656Z,8.80
2022-08-30T03:44:24.627Z,9.80
2022-08-30T03:45:24.769Z,9.10
2022-08-30T03:46:24.680Z,9.20
2022-08-30T03:47:24.577Z,9.40
2022-08-30T03:48:24.592Z,10.10
2022-08-30T03:49:24.548Z,8.80
2022-08-30T04:03:30.424Z,8.70
2022-08-30T04:04:30.380Z,9.90
2022-08-30T04:05:30.380Z,8.60
2022-08-30T04:06:30.385Z,9.50
2022-08-30T04:07:30.352Z,9.80
2022-08-30T04:08:30.357Z,9.90
2022-08-30T04:09:30.321Z,9.40
2022-08-30T04:10:30.300Z,9.30
2022-08-30T04:11:30.320Z,9.00
2022-08-30T04:12:30.282Z,8.10
2022-08-30T04:13:30.291Z,9.40
2022-08-30T04:14:30.261Z,9.20
2022-08-30T04:15:30.242Z,9.50
2022-08-30T04:16:30.299Z,9.30
2022-08-30T04:17:30.212Z,9.10
2022-08-30T04:18:30.220Z,8.40
2022-08-30T04:19:30.183Z,9.70
2022-08-30T04:20:30.165Z,8.90
2022-08-30T04:21:30.184Z,8.60
2022-08-30T04:22:30.149Z,8.60
2022-08-30T04:23:30.124Z,9.30
2022-08-30T04:24:30.113Z,9.00
2022-08-30T04:25:30.133Z,7.90
2022-08-30T04:26:30.121Z,7.80
2022-08-30T04:27:30.084Z,8.10
2022-08-30T04:28:30.086Z,8.50
2022-08-30T04:29:30.063Z,7.60
2022-08-30T04:30:30.053Z,8.60
2022-08-30T04:31:30.121Z,9.10
2022-08-30T04:32:30.007Z,8.40
2022-08-30T04:33:30.007Z,8.80
2022-08-30T04:34:29.983Z,8.60
2022-08-30T04:35:29.984Z,8.80
2022-08-30T04:36:29.993Z,8.10
2022-08-30T04:37:29.990Z,8.40
2022-08-30T04:38:30.554Z,8.00
2022-08-30T04:39:29.925Z,7.70
2022-08-30T04:40:29.962Z,7.50
2022-08-30T04:41:29.907Z,8.20
2022-08-30T04:42:29.896Z,8.10
2022-08-30T04:43:29.877Z,8.40
2022-08-30T04:44:29.865Z,8.40
2022-08-30T04:45:29.884Z,8.80
2022-08-30T04:46:29.866Z,9.20
2022-08-30T04:47:29.848Z,8.10
2022-08-30T04:48:29.810Z,8.20
2022-08-30T04:49:29.787Z,7.70
2022-08-30T04:50:29.799Z,7.80
2022-08-30T04:51:29.798Z,8.10
2022-08-30T04:52:29.767Z,8.60
2022-08-30T04:53:29.757Z,8.20
2022-08-30T04:54:29.780Z,8.20
2022-08-30T04:55:29.728Z,7.40
2022-08-30T04:56:29.723Z,7.90
2022-08-30T04:57:29.690Z,8.10
2022-08-30T04:58:29.671Z,7.60
2022-08-30T04:59:29.668Z,7.80
2022-08-30T05:00:29.724Z,7.80
2022-08-30T05:01:29.692Z,7.70
2022-08-30T05:02:29.665Z,8.60
2022-08-30T05:03:29.627Z,8.90
2022-08-30T05:04:29.594Z,8.30
2022-08-30T05:05:29.589Z,8.20
2022-08-30T05:06:29.570Z,8.20
2022-08-30T05:07:29.560Z,8.20
2022-08-30T05:08:29.563Z,7.80
2022-08-30T05:09:29.540Z,7.80
2022-08-30T05:10:29.533Z,8.10
2022-08-30T05:11:29.500Z,7.80
2022-08-30T05:12:29.531Z,9.10
2022-08-30T05:13:35.508Z,7.70
2022-08-30T05:14:30.472Z,8.60
2022-08-30T05:15:29.467Z,8.20
2022-08-30T05:16:29.472Z,7.60
2022-08-30T05:17:29.452Z,7.70
2022-08-30T05:18:29.421Z,8.30
2022-08-30T05:19:29.399Z,8.50
2022-08-30T05:20:30.398Z,8.50
2022-08-30T05:21:29.383Z,8.30
2022-08-30T05:22:30.372Z,8.40
2022-08-30T05:23:29.382Z,8.20
2022-08-30T05:24:29.353Z,8.10
2022-08-30T05:25:30.312Z,7.90
2022-08-30T05:26:29.313Z,8.00
2022-08-30T05:27:29.312Z,7.20
2022-08-30T05:28:29.305Z,7.50
2022-08-30T05:29:29.274Z,8.20
2022-08-30T05:30:29.273Z,8.20
2022-08-30T05:31:29.295Z,6.70
2022-08-30T05:32:30.238Z,7.30
2022-08-30T05:33:29.223Z,8.10
2022-08-30T05:34:29.217Z,8.10
2022-08-30T05:35:29.204Z,7.00
2022-08-30T05:36:29.174Z,6.90
2022-08-30T05:37:29.185Z,8.20
2022-08-30T05:38:29.154Z,7.10
2022-08-30T05:39:29.144Z,7.30
2022-08-30T05:40:30.158Z,7.90
2022-08-30T05:41:29.103Z,7.70
2022-08-30T05:42:29.106Z,7.10
2022-08-30T05:43:30.114Z,7.70
2022-08-30T05:44:29.075Z,8.20
2022-08-30T05:45:29.069Z,7.60
2022-08-30T05:46:29.116Z,7.50
2022-08-30T05:47:29.026Z,7.30
2022-08-30T05:48:29.027Z,6.60
2022-08-30T05:49:29.009Z,6.30
2022-08-30T05:50:28.997Z,7.00
2022-08-30T05:51:28.978Z,6.90
2022-08-30T05:52:28.978Z,6.00
2022-08-30T05:53:28.957Z,6.50
2022-08-30T05:54:28.937Z,6.70
2022-08-30T05:55:28.938Z,6.00
2022-08-30T05:56:28.919Z,6.10
2022-08-30T05:57:28.892Z,5.90
2022-08-30T05:58:28.888Z,6.30
2022-08-30T05:59:28.868Z,6.90
2022-08-30T06:00:28.882Z,6.60
2022-08-30T06:01:28.877Z,6.20
2022-08-30T06:02:28.832Z,6.70
2022-08-30T06:03:28.819Z,6.80
2022-08-30T06:04:28.810Z,6.10
2022-08-30T06:05:28.798Z,6.60
2022-08-30T06:06:28.789Z,6.40
2022-08-30T06:07:28.779Z,6.00
2022-08-30T06:08:28.771Z,6.00
2022-08-30T06:09:28.740Z,6.50
2022-08-30T06:10:28.741Z,6.10
2022-08-30T06:11:28.728Z,6.00
2022-08-30T06:12:28.711Z,5.90
2022-08-30T06:13:28.709Z,5.60
2022-08-30T06:14:28.672Z,5.80
2022-08-30T06:15:28.652Z,6.30
2022-08-30T06:16:28.710Z,6.80
2022-08-30T06:17:28.641Z,6.50
2022-08-30T06:18:29.665Z,7.20
2022-08-30T06:19:28.602Z,7.60
2022-08-30T06:20:28.592Z,6.20
2022-08-30T06:21:28.592Z,6.90
2022-08-30T06:22:28.570Z,7.40
2022-08-30T06:23:28.588Z,6.30
2022-08-30T06:24:41.394Z,6.30
2022-08-30T06:25:41.321Z,6.80
2022-08-30T06:26:29.600Z,5.70
2022-08-30T06:27:28.503Z,6.10
2022-08-30T06:28:28.501Z,6.00
2022-08-30T06:29:28.484Z,6.20
2022-08-30T06:30:28.500Z,6.40
2022-08-30T06:31:28.514Z,6.00
2022-08-30T06:32:28.434Z,5.80
2022-08-30T06:33:28.424Z,5.70
2022-08-30T06:34:28.423Z,5.50
2022-08-30T06:35:30.723Z,5.50
2022-08-30T06:36:28.395Z,5.10
2022-08-30T06:37:29.473Z,5.20
2022-08-30T06:38:28.376Z,5.80
2022-08-30T06:39:28.371Z,4.90
2022-08-30T06:40:28.398Z,5.60
2022-08-30T06:41:28.336Z,5.00
2022-08-30T06:42:28.314Z,4.90
2022-08-30T06:43:28.306Z,4.80
2022-08-30T06:44:28.277Z,5.10
2022-08-30T06:45:29.267Z,5.60
2022-08-30T06:46:28.335Z,5.20
2022-08-30T06:47:28.239Z,6.20
2022-08-30T06:48:28.245Z,5.70
2022-08-30T06:49:28.206Z,6.00
2022-08-30T06:50:29.197Z,6.10
2022-08-30T06:51:29.188Z,5.70
2022-08-30T06:52:28.188Z,5.70
2022-08-30T06:53:28.169Z,5.10
2022-08-30T06:54:28.171Z,4.80
2022-08-30T06:55:28.149Z,5.60
2022-08-30T06:56:28.143Z,5.40
2022-08-30T06:57:28.110Z,4.40
2022-08-30T06:58:28.101Z,5.10
2022-08-30T06:59:28.090Z,4.90
2022-08-30T07:00:28.080Z,4.80
2022-08-30T07:01:28.133Z,5.10
2022-08-30T07:02:28.121Z,4.70
2022-08-30T07:03:28.030Z,5.30
2022-08-30T07:04:28.029Z,4.70
2022-08-30T07:05:28.004Z,4.90
2022-08-30T07:06:28.002Z,4.90
2022-08-30T07:07:27.985Z,4.30
2022-08-30T07:08:27.971Z,4.80
2022-08-30T07:09:27.994Z,4.70
2022-08-30T07:10:27.932Z,4.30
2022-08-30T07:11:28.459Z,4.20
2022-08-30T07:12:27.923Z,4.20
2022-08-30T07:13:27.903Z,4.70
2022-08-30T07:14:27.888Z,4.40
2022-08-30T07:15:27.873Z,4.50
2022-08-30T07:16:27.873Z,4.70
2022-08-30T07:17:32.484Z,4.70
2022-08-30T07:18:28.833Z,5.00
2022-08-30T07:19:27.825Z,5.90
2022-08-30T07:20:27.819Z,6.00
2022-08-30T07:21:28.795Z,5.80
2022-08-30T07:22:27.787Z,5.80
2022-08-30T07:23:27.766Z,6.00
2022-08-30T07:24:27.778Z,5.00
2022-08-30T07:25:27.738Z,5.40
2022-08-30T07:26:28.735Z,5.40
2022-08-30T07:27:27.706Z,6.60
2022-08-30T07:28:27.701Z,5.40
2022-08-30T07:29:27.705Z,5.40
2022-08-30T07:30:27.695Z,5.90
2022-08-30T07:31:28.657Z,5.70
2022-08-30T07:32:27.668Z,5.60
2022-08-30T07:33:27.638Z,5.50
2022-08-30T07:34:27.646Z,5.60
2022-08-30T07:35:27.590Z,5.40
2022-08-30T07:36:28.608Z,6.40
2022-08-30T07:37:27.589Z,8.30
2022-08-30T07:38:27.580Z,7.60
2022-08-30T07:39:27.570Z,5.70
2022-08-30T07:40:27.583Z,5.80
2022-08-30T07:41:27.524Z,5.70
2022-08-30T07:42:27.500Z,5.80
2022-08-30T07:43:27.522Z,6.20
2022-08-30T07:44:27.500Z,5.70
2022-08-30T07:45:27.471Z,5.60
2022-08-30T07:46:27.552Z,4.80
2022-08-30T07:47:27.443Z,5.20
2022-08-30T07:48:27.431Z,5.40
2022-08-30T07:49:27.425Z,5.30
2022-08-30T07:50:27.415Z,5.10
2022-08-30T07:51:27.523Z,5.30
2022-08-30T07:52:27.487Z,5.00
2022-08-30T07:53:27.371Z,4.70
2022-08-30T07:54:27.354Z,5.40
2022-08-30T07:55:27.335Z,5.20
2022-08-30T07:56:27.335Z,4.70
2022-08-30T07:57:27.307Z,5.30
2022-08-30T07:58:27.301Z,4.60
2022-08-30T07:59:27.285Z,4.50
2022-08-30T08:00:27.268Z,4.70
2022-08-30T08:01:27.309Z,4.80
2022-08-30T08:02:27.280Z,4.70
2022-08-30T08:03:27.233Z,5.30
2022-08-30T08:04:27.234Z,4.80
2022-08-30T08:05:27.205Z,5.10
2022-08-30T08:06:27.187Z,5.10
2022-08-30T08:07:27.195Z,5.50
2022-08-30T08:08:27.167Z,4.70
2022-08-30T08:09:27.184Z,5.00
2022-08-30T08:10:27.136Z,5.10
2022-08-30T08:11:30.494Z,5.30
2022-08-30T08:12:28.117Z,5.30
2022-08-30T08:13:28.648Z,5.50
2022-08-30T08:14:28.108Z,5.20
2022-08-30T08:15:28.067Z,4.90
2022-08-30T08:16:27.058Z,4.90
2022-08-30T08:17:28.048Z,5.40
2022-08-30T08:18:27.051Z,5.20
2022-08-30T08:19:27.028Z,4.90
2022-08-30T08:20:27.022Z,5.20
2022-08-30T08:21:26.997Z,5.50
2022-08-30T08:22:26.981Z,5.60
2022-08-30T08:23:26.970Z,5.20
2022-08-30T08:24:26.979Z,5.10
2022-08-30T08:25:26.959Z,4.80
2022-08-30T08:26:26.954Z,5.20
2022-08-30T08:27:26.923Z,5.30
2022-08-30T08:28:26.913Z,4.90
2022-08-30T08:29:26.908Z,5.20
2022-08-30T08:30:26.901Z,5.50
2022-08-30T08:31:31.393Z,5.30
2022-08-30T08:32:27.873Z,5.20
2022-08-30T08:33:27.852Z,5.30
2022-08-30T08:34:26.845Z,5.40
2022-08-30T08:35:26.832Z,5.70
2022-08-30T08:36:26.813Z,5.00
2022-08-30T08:37:27.826Z,5.00
2022-08-30T08:38:26.792Z,5.20
2022-08-30T08:39:26.795Z,5.40
2022-08-30T08:40:26.801Z,5.50
2022-08-30T08:41:26.744Z,5.00
2022-08-30T08:42:26.742Z,5.00
2022-08-30T08:43:26.714Z,5.00
2022-08-30T08:44:29.275Z,5.00
2022-08-30T08:45:26.696Z,5.30
2022-08-30T08:46:26.738Z,5.40
2022-08-30T08:47:26.663Z,5.20
2022-08-30T08:48:32.050Z,5.60
2022-08-30T08:49:27.646Z,5.40
2022-08-30T08:50:26.636Z,5.40
2022-08-30T08:51:26.616Z,5.20
2022-08-30T08:52:26.606Z,5.80
2022-08-30T08:53:45.961Z,5.00
2022-08-30T08:54:27.587Z,5.40
2022-08-30T08:55:26.587Z,5.40
2022-08-30T08:56:26.559Z,5.10
2022-08-30T08:57:26.537Z,5.30
2022-08-30T08:58:26.539Z,5.00
2022-08-30T08:59:26.529Z,5.60
2022-08-30T09:00:26.500Z,4.70
2022-08-30T09:01:26.578Z,5.10
2022-08-30T09:02:26.488Z,5.30
2022-08-30T09:03:26.469Z,4.90
2022-08-30T09:04:26.462Z,5.10
2022-08-30T09:05:26.475Z,4.60
2022-08-30T09:06:26.443Z,5.20
2022-08-30T09:07:26.409Z,5.00
2022-08-30T09:08:26.396Z,4.80
2022-08-30T09:09:26.429Z,4.40
2022-08-30T09:10:47.172Z,4.70
2022-08-30T09:11:27.360Z,5.00
2022-08-30T09:12:26.341Z,4.80
2022-08-30T09:13:26.340Z,4.90
2022-08-30T09:14:30.082Z,4.40
2022-08-30T09:15:26.399Z,4.40
2022-08-30T09:16:26.336Z,4.70
2022-08-30T09:17:26.284Z,4.30
2022-08-30T09:18:26.266Z,4.80
2022-08-30T09:19:26.265Z,4.40
2022-08-30T09:20:26.244Z,4.20
2022-08-30T09:21:26.235Z,4.10
2022-08-30T09:22:26.207Z,4.30
2022-08-30T09:23:26.206Z,4.50
2022-08-30T09:24:26.308Z,4.70
2022-08-30T09:25:26.166Z,4.00
2022-08-30T09:26:26.167Z,4.20
2022-08-30T09:27:26.147Z,4.30
2022-08-30T09:28:26.146Z,4.30
2022-08-30T09:29:26.167Z,4.10
2022-08-30T09:30:26.115Z,5.00
2022-08-30T09:31:26.186Z,4.70
2022-08-30T09:32:26.117Z,4.00
2022-08-30T09:33:26.068Z,3.90
2022-08-30T09:34:26.076Z,4.30
2022-08-30T09:35:26.077Z,4.20
2022-08-30T09:36:26.026Z,4.60
2022-08-30T09:37:26.011Z,4.30
2022-08-30T09:38:26.005Z,3.80
2022-08-30T09:39:27.600Z,3.50
2022-08-30T09:40:26.068Z,4.20
2022-08-30T09:41:25.978Z,3.60
2022-08-30T09:42:25.968Z,3.70
2022-08-30T09:43:25.929Z,3.80
2022-08-30T09:44:25.940Z,3.50
2022-08-30T09:45:27.918Z,3.30
2022-08-30T09:46:25.958Z,3.30
2022-08-30T09:47:25.901Z,3.50
2022-08-30T10:04:03.896Z,3.70
2022-08-30T10:05:03.878Z,4.00
2022-08-30T10:06:03.885Z,3.90
2022-08-30T10:07:03.875Z,3.50
2022-08-30T10:08:03.830Z,3.50
2022-08-30T10:09:03.830Z,3.20
2022-08-30T10:10:03.827Z,4.10
2022-08-30T10:11:03.793Z,3.60
2022-08-30T10:12:03.767Z,3.50
2022-08-30T10:13:03.757Z,3.60
2022-08-30T10:14:03.759Z,3.20
2022-08-30T10:15:03.728Z,3.60
2022-08-30T10:16:03.741Z,3.30
2022-08-30T10:17:03.711Z,3.30
2022-08-30T10:18:03.716Z,3.40
2022-08-30T10:19:04.269Z,3.60
2022-08-30T10:20:03.682Z,3.50
2022-08-30T10:21:03.680Z,3.70
2022-08-30T10:22:03.649Z,3.20
2022-08-30T10:23:03.662Z,3.30
2022-08-30T10:24:03.642Z,3.50
2022-08-30T10:25:03.621Z,3.50
2022-08-30T10:26:03.620Z,3.40
2022-08-30T10:27:03.580Z,3.60
2022-08-30T10:28:03.594Z,3.10
2022-08-30T10:29:03.570Z,3.30
2022-08-30T10:30:03.575Z,3.20
2022-08-30T10:31:03.569Z,3.20
2022-08-30T10:32:03.544Z,3.60
2022-08-30T10:33:03.525Z,3.40
2022-08-30T10:34:03.502Z,3.00
2022-08-30T10:35:03.515Z,3.50
2022-08-30T10:36:03.493Z,3.30
2022-08-30T10:37:03.468Z,3.50
2022-08-30T10:38:03.458Z,3.00
2022-08-30T10:39:03.462Z,3.10
2022-08-30T10:40:03.508Z,3.20
2022-08-30T10:41:03.435Z,3.80
2022-08-30T10:42:03.405Z,3.30
2022-08-30T10:43:03.388Z,2.90
2022-08-30T10:44:03.397Z,2.90
2022-08-30T10:45:03.405Z,3.10
2022-08-30T10:46:03.359Z,3.00
2022-08-30T10:47:03.348Z,2.90
2022-08-30T10:48:03.327Z,2.60
2022-08-30T10:49:03.329Z,2.50
2022-08-30T10:50:03.674Z,3.30
2022-08-30T10:51:03.288Z,2.60
2022-08-30T10:52:03.297Z,2.80
2022-08-30T10:53:03.278Z,2.70
2022-08-30T10:54:03.252Z,2.90
2022-08-30T10:55:03.259Z,2.90
2022-08-30T10:56:03.229Z,2.90
2022-08-30T10:57:03.210Z,2.70
2022-08-30T10:58:03.204Z,2.60
2022-08-30T10:59:03.191Z,2.70
2022-08-30T11:00:06.008Z,3.20
2022-08-30T11:01:03.224Z,2.90
2022-08-30T11:02:04.151Z,2.90
2022-08-30T11:03:03.160Z,2.20
2022-08-30T11:04:03.127Z,2.60
2022-08-30T11:05:03.167Z,3.00
2022-08-30T11:06:03.122Z,2.80
2022-08-30T11:07:05.887Z,2.50
2022-08-30T11:08:04.072Z,2.80
2022-08-30T11:09:03.072Z,2.60
2022-08-30T11:10:03.073Z,2.50
2022-08-30T11:11:03.043Z,2.80
2022-08-30T11:12:03.059Z,3.10
2022-08-30T11:13:03.005Z,2.80
2022-08-30T11:14:05.620Z,2.60
2022-08-30T11:15:02.994Z,2.70
2022-08-30T11:16:02.977Z,2.90
2022-08-30T11:17:02.955Z,2.90
2022-08-30T11:18:02.964Z,2.80
2022-08-30T11:19:02.929Z,3.00
2022-08-30T11:20:02.939Z,3.00
2022-08-30T11:21:02.905Z,3.00
2022-08-30T11:22:02.898Z,2.60
2022-08-30T11:23:02.868Z,2.90
2022-08-30T11:24:03.558Z,2.80
2022-08-30T11:25:02.869Z,3.00
2022-08-30T11:26:03.847Z,2.00
2022-08-30T11:27:02.829Z,2.40
2022-08-30T11:28:02.809Z,2.90
2022-08-30T11:29:02.812Z,2.70
2022-08-30T11:30:03.818Z,2.70
2022-08-30T11:31:03.768Z,2.30
2022-08-30T11:32:02.775Z,2.30
2022-08-30T11:33:02.761Z,2.20
2022-08-30T11:34:03.735Z,2.80
2022-08-30T11:35:02.730Z,2.40
2022-08-30T11:36:02.701Z,2.30
2022-08-30T11:37:02.692Z,2.40
2022-08-30T11:38:02.691Z,2.40
2022-08-30T11:39:02.690Z,2.50
2022-08-30T11:40:04.199Z,2.00
2022-08-30T11:41:02.684Z,2.00
2022-08-30T11:42:02.631Z,2.30
2022-08-30T11:43:02.620Z,2.10
2022-08-30T11:44:02.625Z,2.30
2022-08-30T11:45:02.613Z,2.20
2022-08-30T11:46:02.656Z,1.90
2022-08-30T11:47:02.584Z,2.00
2022-08-30T11:48:04.626Z,2.40
2022-08-30T11:49:02.548Z,2.50
2022-08-30T11:50:02.549Z,2.00
2022-08-30T11:51:03.528Z,2.00
2022-08-30T11:52:27.684Z,1.90
2022-08-30T11:53:03.528Z,2.00
2022-08-30T11:54:02.497Z,1.90
2022-08-30T11:55:02.466Z,1.80
2022-08-30T11:56:02.467Z,2.00
2022-08-30T11:57:02.440Z,2.30
2022-08-30T11:58:02.438Z,2.10
2022-08-30T11:59:02.419Z,2.30
2022-08-30T12:00:02.429Z,2.00
2022-08-30T12:01:02.409Z,1.90
2022-08-30T12:02:02.495Z,2.30
2022-08-30T12:03:02.605Z,2.40
2022-08-30T12:04:02.369Z,2.20
2022-08-30T12:05:02.344Z,2.00
2022-08-30T12:06:02.340Z,2.10
2022-08-30T12:07:02.329Z,2.40
2022-08-30T12:08:03.302Z,1.90
2022-08-30T12:09:08.327Z,2.10
2022-08-30T12:10:03.285Z,2.10
2022-08-30T12:11:02.301Z,2.00
2022-08-30T12:12:02.380Z,2.20
2022-08-30T12:13:02.255Z,2.40
2022-08-30T12:14:02.235Z,1.90
2022-08-30T12:15:04.307Z,2.00
2022-08-30T12:16:03.328Z,1.80
2022-08-30T12:17:02.252Z,2.20
2022-08-30T12:18:02.182Z,2.20
2022-08-30T12:19:02.188Z,2.20
2022-08-30T12:20:03.153Z,2.00
2022-08-30T12:21:02.175Z,2.10
2022-08-30T12:22:02.172Z,2.30
2022-08-30T12:23:02.116Z,2.10
2022-08-30T12:24:03.832Z,1.90
2022-08-30T12:25:02.602Z,2.10
2022-08-30T12:26:02.080Z,1.90
2022-08-30T12:27:02.083Z,2.00
2022-08-30T12:28:02.185Z,2.30
2022-08-30T12:29:02.068Z,2.30
2022-08-30T12:30:02.062Z,2.10
2022-08-30T12:31:03.014Z,2.00
2022-08-30T12:32:03.427Z,2.10
2022-08-30T12:33:01.990Z,2.10
2022-08-30T12:34:01.987Z,1.70
2022-08-30T12:35:01.998Z,1.80
2022-08-30T12:36:02.943Z,1.90
2022-08-30T12:37:01.951Z,1.80
2022-08-30T12:38:01.934Z,2.10
2022-08-30T12:39:05.448Z,1.90
2022-08-30T12:40:01.951Z,1.80
2022-08-30T12:41:01.897Z,1.90
2022-08-30T12:42:01.871Z,1.90
2022-08-30T12:43:01.865Z,1.80
2022-08-30T12:44:01.850Z,1.90
2022-08-30T12:45:02.843Z,1.90
2022-08-30T12:46:07.540Z,1.90
2022-08-30T12:47:03.054Z,2.00
2022-08-30T12:48:01.797Z,2.00
2022-08-30T12:49:01.794Z,1.80
2022-08-30T12:50:02.830Z,2.00
2022-08-30T12:51:01.798Z,2.10
2022-08-30T12:52:01.752Z,1.80
2022-08-30T12:53:01.745Z,1.80
2022-08-30T12:54:01.735Z,1.80
2022-08-30T12:55:01.742Z,1.60
2022-08-30T12:56:01.717Z,1.70
2022-08-30T12:58:02.688Z,1.60
2022-08-30T12:59:01.680Z,1.70
2022-08-30T13:00:02.500Z,1.90
2022-08-30T13:01:01.798Z,2.00
2022-08-30T13:02:01.744Z,1.90
2022-08-30T13:03:01.630Z,1.80
2022-08-30T13:04:01.610Z,2.00
2022-08-30T13:05:01.613Z,1.80
2022-08-30T13:06:02.710Z,2.00
2022-08-30T13:07:01.573Z,1.70
2022-08-30T13:08:01.552Z,1.80
2022-08-30T13:09:01.560Z,2.00
2022-08-30T13:10:01.603Z,1.80
2022-08-30T13:11:07.342Z,2.10
2022-08-30T13:12:02.897Z,2.00
2022-08-30T13:13:01.512Z,2.20
2022-08-30T13:14:01.515Z,1.90
2022-08-30T13:15:01.527Z,2.00
2022-08-30T13:16:01.534Z,1.70
2022-08-30T13:17:01.457Z,2.00
2022-08-30T13:18:01.434Z,1.80
2022-08-30T13:19:01.438Z,2.00
2022-08-30T13:20:01.580Z,1.90
2022-08-30T13:21:01.418Z,2.00
2022-08-30T13:22:01.397Z,1.90
2022-08-30T13:23:02.380Z,1.70
2022-08-30T13:24:01.662Z,1.70
2022-08-30T13:25:02.442Z,1.80
2022-08-30T13:26:01.363Z,1.80
2022-08-30T13:27:01.347Z,1.70
2022-08-30T13:28:01.330Z,2.00
2022-08-30T13:29:01.308Z,1.70
2022-08-30T13:30:01.299Z,1.80
2022-08-30T13:31:01.302Z,1.80
2022-08-30T13:32:01.334Z,2.10
2022-08-30T13:33:01.267Z,1.90
2022-08-30T13:34:01.251Z,1.60
2022-08-30T13:35:01.261Z,1.90
2022-08-30T13:36:01.233Z,1.90
2022-08-30T13:37:01.224Z,1.60
2022-08-30T13:38:01.221Z,1.90
2022-08-30T13:39:01.223Z,1.80
2022-08-30T13:40:04.527Z,1.80
2022-08-30T13:41:01.184Z,1.90
2022-08-30T13:43:02.246Z,1.50
2022-08-30T13:44:16.643Z,1.70
2022-08-30T13:45:02.292Z,1.80
2022-08-30T13:46:01.309Z,1.70
2022-08-30T13:48:02.103Z,1.80
2022-08-30T13:49:01.103Z,2.00
2022-08-30T13:50:01.095Z,1.90
2022-08-30T13:51:01.147Z,1.70
2022-08-30T13:52:19.383Z,1.80
2022-08-30T13:53:02.007Z,2.00
2022-08-30T13:54:01.035Z,2.10
2022-08-30T13:55:01.038Z,1.60
2022-08-30T13:56:01.069Z,1.90
2022-08-30T13:57:01.052Z,1.80
2022-08-30T13:58:01.049Z,1.70
2022-08-30T13:59:02.752Z,1.80
2022-08-30T14:00:00.969Z,1.80
2022-08-30T14:01:01.045Z,1.60
2022-08-30T14:02:08.607Z,1.90
2022-08-30T14:03:02.930Z,1.70
2022-08-30T14:04:16.615Z,1.50
2022-08-30T14:05:03.159Z,1.90
2022-08-30T14:06:29.548Z,1.70
2022-08-30T14:07:20.703Z,1.50